createdAt,value
2018-03-15T00:00:55.996Z,88.68
2018-03-15T00:01:55.992Z,88.68
2018-03-15T00:02:55.966Z,88.68
2018-03-15T00:03:55.952Z,88.48
2018-03-15T00:04:55.937Z,88.01
2018-03-15T00:05:55.922Z,88.58
2018-03-15T00:06:55.908Z,88.68
2018-03-15T00:07:55.938Z,88.77
2018-03-15T00:08:55.877Z,88.68
2018-03-15T00:09:55.864Z,88.39
2018-03-15T00:10:55.850Z,88.48
2018-03-15T00:11:55.850Z,89.15
2018-03-15T00:12:55.840Z,89.62
2018-03-15T00:13:55.805Z,88.77
2018-03-15T00:14:55.810Z,88.58
2018-03-15T00:15:55.777Z,88.01
2018-03-15T00:16:55.761Z,88.01
2018-03-15T00:17:55.747Z,88.10
2018-03-15T00:18:55.757Z,88.39
2018-03-15T00:19:55.718Z,87.92
2018-03-15T00:20:55.722Z,88.10
2018-03-15T00:21:55.689Z,88.20
2018-03-15T00:22:55.675Z,87.92
2018-03-15T00:23:55.660Z,88.01
2018-03-15T00:24:55.657Z,88.58
2018-03-15T00:25:55.631Z,88.48
2018-03-15T00:26:55.616Z,87.92
2018-03-15T00:27:55.602Z,88.10
2018-03-15T00:28:55.586Z,87.82
2018-03-15T00:29:55.571Z,88.20
2018-03-15T00:30:55.557Z,88.68
2018-03-15T00:31:55.543Z,88.58
2018-03-15T00:32:55.570Z,87.82
2018-03-15T00:33:55.527Z,87.73
2018-03-15T00:34:55.543Z,88.01
2018-03-15T00:35:55.484Z,87.63
2018-03-15T00:36:55.468Z,87.45
2018-03-15T00:37:55.467Z,87.73
2018-03-15T00:38:55.467Z,88.20
2018-03-15T00:39:55.431Z,87.63
2018-03-15T00:40:55.462Z,87.54
2018-03-15T00:41:55.395Z,87.45
2018-03-15T00:42:55.381Z,87.54
2018-03-15T00:43:55.387Z,87.63
2018-03-15T00:44:55.351Z,88.20
2018-03-15T00:45:55.339Z,88.39
2018-03-15T00:46:55.322Z,87.82
2018-03-15T00:47:55.309Z,88.20
2018-03-15T00:48:55.292Z,88.20
2018-03-15T00:49:55.278Z,87.63
2018-03-15T00:50:55.264Z,87.45
2018-03-15T00:51:55.256Z,87.92
2018-03-15T00:52:55.272Z,88.20
2018-03-15T00:53:55.230Z,87.92
2018-03-15T00:54:55.205Z,87.73
2018-03-15T00:55:55.195Z,87.54
2018-03-15T00:56:55.175Z,87.92
2018-03-15T00:57:55.161Z,88.29
2018-03-15T00:58:55.176Z,88.58
2018-03-15T00:59:55.143Z,87.92
2018-03-15T01:00:55.116Z,87.82
2018-03-15T01:01:55.109Z,88.01
2018-03-15T01:02:55.087Z,88.20
2018-03-15T01:03:55.073Z,88.01
2018-03-15T01:04:55.058Z,88.01
2018-03-15T01:05:55.043Z,88.20
2018-03-15T01:06:55.029Z,88.20
2018-03-15T01:07:55.014Z,88.29
2018-03-15T01:08:54.999Z,88.10
2018-03-15T01:09:54.984Z,87.82
2018-03-15T01:10:54.970Z,87.25
2018-03-15T01:11:54.959Z,88.01
2018-03-15T01:12:54.966Z,88.20
2018-03-15T01:13:54.928Z,87.63
2018-03-15T01:14:54.960Z,87.63
2018-03-15T01:15:54.897Z,88.20
2018-03-15T01:16:54.881Z,88.20
2018-03-15T01:17:54.884Z,87.49
2018-03-15T01:18:54.884Z,87.73
2018-03-15T01:19:54.841Z,87.82
2018-03-15T01:20:55.038Z,87.63
2018-03-15T01:21:54.808Z,87.45
2018-03-15T01:22:54.794Z,87.35
2018-03-15T01:23:54.796Z,87.25
2018-03-15T01:24:54.764Z,87.73
2018-03-15T01:25:54.749Z,87.68
2018-03-15T01:26:54.735Z,87.63
2018-03-15T01:27:54.720Z,87.35
2018-03-15T01:28:54.726Z,87.35
2018-03-15T01:29:54.690Z,86.78
2018-03-15T01:30:54.676Z,86.68
2018-03-15T01:31:54.674Z,86.97
2018-03-15T01:32:54.666Z,87.63
2018-03-15T01:33:54.648Z,87.25
2018-03-15T01:34:54.617Z,87.25
2018-03-15T01:35:54.612Z,87.59
2018-03-15T01:36:54.587Z,87.54
2018-03-15T01:37:54.573Z,87.12
2018-03-15T01:38:54.573Z,87.30
2018-03-15T01:39:54.555Z,87.40
2018-03-15T01:40:54.528Z,87.12
2018-03-15T01:41:54.521Z,86.93
2018-03-15T01:42:54.498Z,87.02
2018-03-15T01:43:54.484Z,86.93
2018-03-15T01:44:54.469Z,87.12
2018-03-15T01:45:54.453Z,86.55
2018-03-15T01:46:54.439Z,86.87
2018-03-15T01:47:54.425Z,87.02
2018-03-15T01:48:54.409Z,86.74
2018-03-15T01:49:54.395Z,86.83
2018-03-15T01:50:54.381Z,86.93
2018-03-15T01:51:54.384Z,87.30
2018-03-15T01:52:54.367Z,87.30
2018-03-15T01:53:54.359Z,87.59
2018-03-15T01:54:54.321Z,88.35
2018-03-15T01:55:54.348Z,87.97
2018-03-15T01:56:54.293Z,87.68
2018-03-15T01:57:54.277Z,87.30
2018-03-15T01:58:54.270Z,87.30
2018-03-15T01:59:54.271Z,88.35
2018-03-15T02:00:54.232Z,87.77
2018-03-15T02:01:54.260Z,87.68
2018-03-15T02:02:54.203Z,87.30
2018-03-15T02:03:54.189Z,87.40
2018-03-15T02:04:54.192Z,86.83
2018-03-15T02:05:54.160Z,86.74
2018-03-15T02:06:54.144Z,87.12
2018-03-15T02:07:54.130Z,86.74
2018-03-15T02:08:54.114Z,87.12
2018-03-15T02:09:54.100Z,87.02
2018-03-15T02:10:54.085Z,86.74
2018-03-15T02:11:54.081Z,87.02
2018-03-15T02:12:54.088Z,87.30
2018-03-15T02:13:54.060Z,86.83
2018-03-15T02:14:54.026Z,86.83
2018-03-15T02:15:54.022Z,87.02
2018-03-15T02:16:53.996Z,87.30
2018-03-15T02:17:53.982Z,87.49
2018-03-15T02:18:53.967Z,87.30
2018-03-15T02:19:53.968Z,87.49
2018-03-15T02:20:53.937Z,86.64
2018-03-15T02:21:53.934Z,86.83
2018-03-15T02:22:53.908Z,87.12
2018-03-15T02:23:53.893Z,87.12
2018-03-15T02:24:53.877Z,86.26
2018-03-15T02:25:53.864Z,86.45
2018-03-15T02:26:53.849Z,86.55
2018-03-15T02:27:53.834Z,86.83
2018-03-15T02:28:53.818Z,87.40
2018-03-15T02:29:53.804Z,86.93
2018-03-15T02:30:53.791Z,86.93
2018-03-15T02:31:53.775Z,86.55
2018-03-15T02:32:53.760Z,86.97
2018-03-15T02:33:53.768Z,87.16
2018-03-15T02:34:53.731Z,86.74
2018-03-15T02:35:53.760Z,86.64
2018-03-15T02:36:53.700Z,86.40
2018-03-15T02:37:53.687Z,86.30
2018-03-15T02:38:53.712Z,86.26
2018-03-15T02:39:53.685Z,86.35
2018-03-15T02:40:53.644Z,86.07
2018-03-15T02:41:53.675Z,86.35
2018-03-15T02:42:53.611Z,86.21
2018-03-15T02:43:53.598Z,86.26
2018-03-15T02:44:53.600Z,86.26
2018-03-15T02:45:53.568Z,86.16
2018-03-15T02:46:53.553Z,86.83
2018-03-15T02:47:53.539Z,86.45
2018-03-15T02:48:53.523Z,86.55
2018-03-15T02:49:53.508Z,87.12
2018-03-15T02:50:53.497Z,86.45
2018-03-15T02:51:53.480Z,86.64
2018-03-15T02:52:53.476Z,86.55
2018-03-15T02:53:53.486Z,87.12
2018-03-15T02:54:53.443Z,86.74
2018-03-15T02:55:53.421Z,87.12
2018-03-15T02:56:53.410Z,87.30
2018-03-15T02:57:53.390Z,87.30
2018-03-15T02:58:53.376Z,87.30
2018-03-15T02:59:53.396Z,87.12
2018-03-15T03:00:53.360Z,86.93
2018-03-15T03:01:53.336Z,86.83
2018-03-15T03:02:53.322Z,86.74
2018-03-15T03:03:53.304Z,87.30
2018-03-15T03:04:53.286Z,86.93
2018-03-15T03:05:53.276Z,87.49
2018-03-15T03:06:53.259Z,87.68
2018-03-15T03:07:53.243Z,87.68
2018-03-15T03:08:53.230Z,87.77
2018-03-15T03:09:53.213Z,87.87
2018-03-15T03:10:53.198Z,87.87
2018-03-15T03:11:53.184Z,87.87
2018-03-15T03:12:53.169Z,88.06
2018-03-15T03:13:53.182Z,88.63
2018-03-15T03:14:53.142Z,88.54
2018-03-15T03:15:53.170Z,88.16
2018-03-15T03:16:53.110Z,88.54
2018-03-15T03:17:53.095Z,88.44
2018-03-15T03:18:53.103Z,89.01
2018-03-15T03:19:53.097Z,89.11
2018-03-15T03:20:53.055Z,89.77
2018-03-15T03:21:53.090Z,89.48
2018-03-15T03:22:53.027Z,89.58
2018-03-15T03:23:53.006Z,89.77
2018-03-15T03:24:53.011Z,89.39
2018-03-15T03:25:52.976Z,89.67
2018-03-15T03:26:52.961Z,89.39
2018-03-15T03:27:52.947Z,89.67
2018-03-15T03:28:52.931Z,90.05
2018-03-15T03:29:52.916Z,89.96
2018-03-15T03:30:52.902Z,90.34
2018-03-15T03:31:52.886Z,90.24
2018-03-15T03:32:52.882Z,90.43
2018-03-15T03:33:52.887Z,90.81
2018-03-15T03:34:52.856Z,90.48
2018-03-15T03:35:52.826Z,90.77
2018-03-15T03:36:52.820Z,90.86
2018-03-15T03:37:52.796Z,90.48
2018-03-15T03:38:52.781Z,90.77
2018-03-15T03:39:52.766Z,91.05
2018-03-15T03:40:52.772Z,90.67
2018-03-15T03:41:52.736Z,90.48
2018-03-15T03:42:52.737Z,90.77
2018-03-15T03:43:52.706Z,91.05
2018-03-15T03:44:52.690Z,90.67
2018-03-15T03:45:52.676Z,90.77
2018-03-15T03:46:52.660Z,90.58
2018-03-15T03:47:52.646Z,90.67
2018-03-15T03:48:52.633Z,90.86
2018-03-15T03:49:52.615Z,90.67
2018-03-15T03:50:52.600Z,91.14
2018-03-15T03:51:52.584Z,91.62
2018-03-15T03:52:52.569Z,91.52
2018-03-15T03:53:52.553Z,91.43
2018-03-15T03:54:52.569Z,90.95
2018-03-15T03:55:52.532Z,90.67
2018-03-15T03:56:52.725Z,91.33
2018-03-15T03:57:52.495Z,91.14
2018-03-15T03:58:52.478Z,91.71
2018-03-15T03:59:52.487Z,91.24
2018-03-15T04:00:52.447Z,91.24
2018-03-15T04:01:52.443Z,91.62
2018-03-15T04:02:52.470Z,91.24
2018-03-15T04:03:52.408Z,90.86
2018-03-15T04:04:52.386Z,90.91
2018-03-15T04:05:52.398Z,90.34
2018-03-15T04:06:52.356Z,90.72
2018-03-15T04:07:52.341Z,90.48
2018-03-15T04:08:52.325Z,90.72
2018-03-15T04:09:52.310Z,90.62
2018-03-15T04:10:52.295Z,90.43
2018-03-15T04:11:52.280Z,90.15
2018-03-15T04:12:52.266Z,90.62
2018-03-15T04:13:52.250Z,90.72
2018-03-15T04:14:52.235Z,90.48
2018-03-15T04:15:52.244Z,90.62
2018-03-15T04:16:52.214Z,90.34
2018-03-15T04:17:52.242Z,90.29
2018-03-15T04:18:52.175Z,90.05
2018-03-15T04:19:52.159Z,90.62
2018-03-15T04:20:52.165Z,90.72
2018-03-15T04:21:52.127Z,90.43
2018-03-15T04:22:52.125Z,90.34
2018-03-15T04:23:52.323Z,90.43
2018-03-15T04:24:52.097Z,90.72
2018-03-15T04:25:52.068Z,90.72
2018-03-15T04:26:52.079Z,90.77
2018-03-15T04:27:52.037Z,90.53
2018-03-15T04:28:52.025Z,90.29
2018-03-15T04:29:52.007Z,90.62
2018-03-15T04:30:51.991Z,90.15
2018-03-15T04:31:51.977Z,89.67
2018-03-15T04:32:51.960Z,90.72
2018-03-15T04:33:51.946Z,90.10
2018-03-15T04:34:51.934Z,90.62
2018-03-15T04:35:51.917Z,90.24
2018-03-15T04:36:51.923Z,90.77
2018-03-15T04:37:51.885Z,90.77
2018-03-15T04:38:51.894Z,91.05
2018-03-15T04:39:51.855Z,90.72
2018-03-15T04:40:51.839Z,90.15
2018-03-15T04:41:51.824Z,90.53
2018-03-15T04:42:51.809Z,90.34
2018-03-15T04:43:51.800Z,89.67
2018-03-15T04:44:51.805Z,89.44
2018-03-15T04:45:51.766Z,90.34
2018-03-15T04:46:51.748Z,89.58
2018-03-15T04:47:51.733Z,89.77
2018-03-15T04:48:51.721Z,89.63
2018-03-15T04:49:51.702Z,89.86
2018-03-15T04:50:51.688Z,89.82
2018-03-15T04:51:51.677Z,89.58
2018-03-15T04:52:51.656Z,90.58
2018-03-15T04:53:51.641Z,90.29
2018-03-15T04:54:51.627Z,90.10
2018-03-15T04:55:51.612Z,90.20
2018-03-15T04:56:51.595Z,90.29
2018-03-15T04:57:51.597Z,89.44
2018-03-15T04:58:51.616Z,90.10
2018-03-15T04:59:51.566Z,90.67
2018-03-15T05:00:51.534Z,90.10
2018-03-15T05:01:51.553Z,89.63
2018-03-15T05:02:51.504Z,89.72
2018-03-15T05:03:51.490Z,90.29
2018-03-15T05:04:51.483Z,89.82
2018-03-15T05:05:51.485Z,90.29
2018-03-15T05:06:51.443Z,90.67
2018-03-15T05:07:51.468Z,90.58
2018-03-15T05:08:51.412Z,90.48
2018-03-15T05:09:51.398Z,90.39
2018-03-15T05:10:51.399Z,90.58
2018-03-15T05:11:51.371Z,90.58
2018-03-15T05:12:51.384Z,90.48
2018-03-15T05:13:51.337Z,90.48
2018-03-15T05:14:51.343Z,90.48
2018-03-15T05:16:51.328Z,90.86
2018-03-15T05:17:51.279Z,90.58
2018-03-15T05:18:51.308Z,90.86
2018-03-15T05:19:51.246Z,90.48
2018-03-15T05:20:51.230Z,90.48
2018-03-15T05:21:51.229Z,90.67
2018-03-15T05:22:51.200Z,90.39
2018-03-15T05:23:51.262Z,90.58
2018-03-15T05:24:51.175Z,90.48
2018-03-15T05:25:51.154Z,90.86
2018-03-15T05:26:51.138Z,91.05
2018-03-15T05:27:51.130Z,91.24
2018-03-15T05:28:51.111Z,91.24
2018-03-15T05:29:51.139Z,90.86
2018-03-15T05:30:51.077Z,90.67
2018-03-15T05:31:51.062Z,90.86
2018-03-15T05:32:51.083Z,91.33
2018-03-15T05:33:51.036Z,91.05
2018-03-15T05:34:51.017Z,90.86
2018-03-15T05:35:51.009Z,91.33
2018-03-15T05:36:51.010Z,91.24
2018-03-15T05:37:50.970Z,91.24
2018-03-15T05:38:50.986Z,91.24
2018-03-15T05:39:50.940Z,91.43
2018-03-15T05:40:50.923Z,91.71
2018-03-15T05:41:50.924Z,91.14
2018-03-15T05:42:50.893Z,91.62
2018-03-15T05:43:50.879Z,91.52
2018-03-15T05:44:51.069Z,90.95
2018-03-15T05:45:50.854Z,91.52
2018-03-15T05:46:50.832Z,91.43
2018-03-15T05:47:50.820Z,91.05
2018-03-15T05:48:50.801Z,91.14
2018-03-15T05:49:50.785Z,91.52
2018-03-15T05:50:50.770Z,91.62
2018-03-15T05:51:50.755Z,91.62
2018-03-15T05:52:50.747Z,91.52
2018-03-15T05:53:50.739Z,91.05
2018-03-15T05:54:50.713Z,91.24
2018-03-15T05:55:50.697Z,91.24
2018-03-15T05:56:50.681Z,91.24
2018-03-15T05:57:50.665Z,91.71
2018-03-15T05:58:50.658Z,91.43
2018-03-15T05:59:50.692Z,91.24
2018-03-15T06:00:50.616Z,90.86
2018-03-15T06:01:50.603Z,91.24
2018-03-15T06:02:50.646Z,91.24
2018-03-15T06:03:50.571Z,91.24
2018-03-15T06:04:50.557Z,91.14
2018-03-15T06:05:50.585Z,91.52
2018-03-15T06:06:50.526Z,91.43
2018-03-15T06:07:50.510Z,91.62
2018-03-15T06:08:50.538Z,91.43
2018-03-15T06:09:50.481Z,91.62
2018-03-15T06:10:50.463Z,91.05
2018-03-15T06:11:50.508Z,91.71
2018-03-15T06:12:50.431Z,91.62
2018-03-15T06:13:50.417Z,91.33
2018-03-15T06:14:50.439Z,91.05
2018-03-15T06:15:50.386Z,91.24
2018-03-15T06:16:50.370Z,91.05
2018-03-15T06:17:50.359Z,91.14
2018-03-15T06:18:50.342Z,91.14
2018-03-15T06:19:50.327Z,91.24
2018-03-15T06:20:50.312Z,91.62
2018-03-15T06:21:50.294Z,91.52
2018-03-15T06:22:50.279Z,91.24
2018-03-15T06:23:50.264Z,91.05
2018-03-15T06:24:50.253Z,90.48
2018-03-15T06:25:50.444Z,90.58
2018-03-15T06:26:50.218Z,90.10
2018-03-15T06:27:50.203Z,90.58
2018-03-15T06:28:50.318Z,90.39
2018-03-15T06:29:50.172Z,90.58
2018-03-15T06:30:50.161Z,90.67
2018-03-15T06:31:50.188Z,90.67
2018-03-15T06:32:50.128Z,89.63
2018-03-15T06:33:50.113Z,89.44
2018-03-15T06:34:50.144Z,89.06
2018-03-15T06:35:50.085Z,89.39
2018-03-15T06:36:50.069Z,89.86
2018-03-15T06:37:50.057Z,89.58
2018-03-15T06:38:50.046Z,89.77
2018-03-15T06:39:50.025Z,89.39
2018-03-15T06:40:50.010Z,89.58
2018-03-15T06:41:49.995Z,89.77
2018-03-15T06:42:49.981Z,89.67
2018-03-15T06:43:49.972Z,89.58
2018-03-15T06:44:49.954Z,89.01
2018-03-15T06:45:49.938Z,88.92
2018-03-15T06:46:49.924Z,87.87
2018-03-15T06:47:49.913Z,87.59
2018-03-15T06:48:49.967Z,87.49
2018-03-15T06:49:49.882Z,86.97
2018-03-15T06:50:49.868Z,86.87
2018-03-15T06:51:50.058Z,87.35
2018-03-15T06:52:49.839Z,87.25
2018-03-15T06:53:49.825Z,87.16
2018-03-15T06:54:49.874Z,87.06
2018-03-15T06:55:49.798Z,87.16
2018-03-15T06:56:49.783Z,86.30
2018-03-15T06:57:49.826Z,86.78
2018-03-15T06:58:49.760Z,85.64
2018-03-15T06:59:49.743Z,86.11
2018-03-15T07:00:49.931Z,85.93
2018-03-15T07:01:49.714Z,85.64
2018-03-15T07:02:49.700Z,85.55
2018-03-15T07:03:49.691Z,86.02
2018-03-15T07:04:49.674Z,85.55
2018-03-15T07:05:49.659Z,85.55
2018-03-15T07:06:49.646Z,85.83
2018-03-15T07:07:49.633Z,85.36
2018-03-15T07:08:49.676Z,85.74
2018-03-15T07:09:49.606Z,86.11
2018-03-15T07:10:49.592Z,85.74
2018-03-15T07:11:49.781Z,86.02
2018-03-15T07:12:49.564Z,85.74
2018-03-15T07:13:49.550Z,85.55
2018-03-15T07:14:49.545Z,86.02
2018-03-15T07:15:49.524Z,86.11
2018-03-15T07:16:49.510Z,84.98
2018-03-15T07:17:49.500Z,85.36
2018-03-15T07:18:49.486Z,85.36
2018-03-15T07:19:49.471Z,85.36
2018-03-15T07:20:49.457Z,85.64
2018-03-15T07:21:49.445Z,85.93
2018-03-15T07:22:49.441Z,85.55
2018-03-15T07:23:49.417Z,85.45
2018-03-15T07:24:49.404Z,84.98
2018-03-15T07:25:49.593Z,84.98
2018-03-15T07:26:49.377Z,85.55
2018-03-15T07:27:49.364Z,85.45
2018-03-15T07:28:49.399Z,85.36
2018-03-15T07:29:49.337Z,85.36
2018-03-15T07:30:49.323Z,85.36
2018-03-15T07:31:49.359Z,84.78
2018-03-15T07:32:49.301Z,85.36
2018-03-15T07:33:49.283Z,85.07
2018-03-15T07:34:49.271Z,84.69
2018-03-15T07:35:49.258Z,85.49
2018-03-15T07:36:49.247Z,84.83
2018-03-15T07:37:49.231Z,84.55
2018-03-15T07:38:49.219Z,84.45
2018-03-15T07:39:49.219Z,84.45
2018-03-15T07:40:49.191Z,84.17
2018-03-15T07:41:49.179Z,84.36
2018-03-15T07:42:49.242Z,83.97
2018-03-15T07:43:49.153Z,84.17
2018-03-15T07:44:49.152Z,83.31
2018-03-15T07:45:49.182Z,83.22
2018-03-15T07:46:49.115Z,83.40
2018-03-15T07:47:49.104Z,83.31
2018-03-15T07:48:49.293Z,83.12
2018-03-15T07:49:49.077Z,82.93
2018-03-15T07:50:49.084Z,82.74
2018-03-15T07:51:49.100Z,82.84
2018-03-15T07:52:49.039Z,82.36
2018-03-15T07:53:49.029Z,82.46
2018-03-15T07:54:49.036Z,82.36
2018-03-15T07:55:49.002Z,82.46
2018-03-15T07:56:48.989Z,82.40
2018-03-15T07:57:48.977Z,82.78
2018-03-15T07:58:48.966Z,81.36
2018-03-15T07:59:49.036Z,81.55
2018-03-15T08:00:48.941Z,81.36
2018-03-15T08:01:48.929Z,80.41
2018-03-15T08:02:48.952Z,80.32
2018-03-15T08:03:48.914Z,81.17
2018-03-15T08:04:48.895Z,80.88
2018-03-15T08:05:48.929Z,80.41
2018-03-15T08:06:48.871Z,80.07
2018-03-15T08:07:48.862Z,81.12
2018-03-15T08:08:48.848Z,79.79
2018-03-15T08:09:48.838Z,79.12
2018-03-15T08:10:48.826Z,79.03
2018-03-15T08:11:48.815Z,79.60
2018-03-15T08:12:48.881Z,79.88
2018-03-15T08:13:48.793Z,80.07
2018-03-15T08:14:48.782Z,80.16
2018-03-15T08:15:48.975Z,79.88
2018-03-15T08:16:48.760Z,78.93
2018-03-15T08:17:48.750Z,78.27
2018-03-15T08:18:48.742Z,78.36
2018-03-15T08:19:48.732Z,78.83
2018-03-15T08:20:48.718Z,78.55
2018-03-15T08:21:48.708Z,78.30
2018-03-15T08:22:48.700Z,77.98
2018-03-15T08:23:48.688Z,77.12
2018-03-15T08:24:48.677Z,78.11
2018-03-15T08:25:48.668Z,77.45
2018-03-15T08:26:48.738Z,76.97
2018-03-15T08:27:48.647Z,77.36
2018-03-15T08:28:48.636Z,76.78
2018-03-15T08:29:48.830Z,77.36
2018-03-15T08:30:48.619Z,76.88
2018-03-15T08:31:48.609Z,76.35
2018-03-15T08:32:48.640Z,75.36
2018-03-15T08:33:48.589Z,75.11
2018-03-15T08:34:48.579Z,75.49
2018-03-15T08:35:48.569Z,74.82
2018-03-15T08:36:48.559Z,75.68
2018-03-15T08:37:48.550Z,75.11
2018-03-15T08:38:48.547Z,75.21
2018-03-15T08:39:48.532Z,75.21
2018-03-15T08:40:48.729Z,74.82
2018-03-15T08:41:48.514Z,74.07
2018-03-15T08:42:48.506Z,73.78
2018-03-15T08:43:48.545Z,74.63
2018-03-15T08:44:48.488Z,74.82
2018-03-15T08:45:48.481Z,74.73
2018-03-15T08:46:48.674Z,75.87
2018-03-15T08:47:48.462Z,75.87
2018-03-15T08:48:48.453Z,74.39
2018-03-15T08:49:48.446Z,73.82
2018-03-15T08:50:48.441Z,73.91
2018-03-15T08:51:48.429Z,73.91
2018-03-15T08:52:48.420Z,73.91
2018-03-15T08:53:48.411Z,74.01
2018-03-15T08:54:48.644Z,73.15
2018-03-15T08:55:48.399Z,73.82
2018-03-15T08:56:48.390Z,73.82
2018-03-15T08:57:48.583Z,73.15
2018-03-15T08:58:48.373Z,72.86
2018-03-15T08:59:48.373Z,72.67
2018-03-15T09:00:48.560Z,73.25
2018-03-15T09:01:48.349Z,72.77
2018-03-15T09:02:48.343Z,72.86
2018-03-15T09:03:48.336Z,73.34
2018-03-15T09:04:48.348Z,73.91
2018-03-15T09:05:48.413Z,73.00
2018-03-15T09:06:48.315Z,71.67
2018-03-15T09:07:48.309Z,72.33
2018-03-15T09:08:48.641Z,72.14
2018-03-15T09:09:48.296Z,71.67
2018-03-15T09:10:48.290Z,71.38
2018-03-15T09:11:48.283Z,72.11
2018-03-15T09:12:48.275Z,72.77
2018-03-15T09:13:48.268Z,72.86
2018-03-15T09:14:48.262Z,73.63
2018-03-15T09:15:48.254Z,74.39
2018-03-15T09:16:48.449Z,74.87
2018-03-15T09:17:48.237Z,74.87
2018-03-15T09:18:48.231Z,74.87
2018-03-15T09:19:48.267Z,75.34
2018-03-15T09:20:48.213Z,74.39
2018-03-15T09:21:48.203Z,74.77
2018-03-15T09:22:48.214Z,75.43
2018-03-15T09:23:48.188Z,74.87
2018-03-15T09:24:48.180Z,75.34
2018-03-15T09:25:48.169Z,74.87
2018-03-15T09:26:48.160Z,74.77
2018-03-15T09:27:48.156Z,75.24
2018-03-15T09:28:48.142Z,75.40
2018-03-15T09:29:48.135Z,76.25
2018-03-15T09:30:48.204Z,76.35
2018-03-15T09:31:48.114Z,76.06
2018-03-15T09:32:48.104Z,76.82
2018-03-15T09:34:48.084Z,77.11
2018-03-15T09:35:48.077Z,76.92
2018-03-15T09:36:48.112Z,77.11
2018-03-15T09:37:48.056Z,77.11
2018-03-15T09:38:48.045Z,77.68
2018-03-15T09:39:48.035Z,76.76
2018-03-15T09:40:48.025Z,75.53
2018-03-15T09:41:48.015Z,75.62
2018-03-15T09:42:48.006Z,76.20
2018-03-15T09:43:47.997Z,76.01
2018-03-15T09:44:48.082Z,75.34
2018-03-15T09:45:47.983Z,74.77
2018-03-15T09:46:47.969Z,75.43
2018-03-15T09:47:48.041Z,75.05
2018-03-15T09:48:47.949Z,75.62
2018-03-15T09:49:47.939Z,75.72
2018-03-15T09:50:47.962Z,76.01
2018-03-15T09:51:47.921Z,75.38
2018-03-15T09:52:47.918Z,74.90
2018-03-15T09:53:47.903Z,73.38
2018-03-15T09:54:47.896Z,72.33
2018-03-15T09:55:47.885Z,72.62
2018-03-15T09:56:47.876Z,73.00
2018-03-15T09:57:47.872Z,71.76
2018-03-15T09:58:48.064Z,72.05
2018-03-15T09:59:47.855Z,72.62
2018-03-15T10:00:47.844Z,73.57
2018-03-15T10:01:47.891Z,72.05
2018-03-15T10:02:47.830Z,71.67
2018-03-15T10:03:47.823Z,71.86
2018-03-15T10:04:47.849Z,72.62
2018-03-15T10:05:47.873Z,73.10
2018-03-15T10:06:47.797Z,72.90
2018-03-15T10:07:47.792Z,73.10
2018-03-15T10:08:47.782Z,72.85
2018-03-15T10:09:47.774Z,72.27
2018-03-15T10:10:47.766Z,72.37
2018-03-15T10:11:47.853Z,72.85
2018-03-15T10:12:47.750Z,72.27
2018-03-15T10:13:47.743Z,71.61
2018-03-15T10:14:47.939Z,72.08
2018-03-15T10:15:47.728Z,71.98
2018-03-15T10:16:47.721Z,71.98
2018-03-15T10:17:47.720Z,72.75
2018-03-15T10:18:47.707Z,71.13
2018-03-15T10:19:47.697Z,70.88
2018-03-15T10:20:47.690Z,71.13
2018-03-15T10:21:47.725Z,71.70
2018-03-15T10:22:47.676Z,72.27
2018-03-15T10:23:47.668Z,71.17
2018-03-15T10:24:47.661Z,71.83
2018-03-15T10:25:47.736Z,71.93
2018-03-15T10:26:47.647Z,71.64
2018-03-15T10:27:47.641Z,69.54
2018-03-15T10:28:47.837Z,69.93
2018-03-15T10:29:47.626Z,70.50
2018-03-15T10:30:47.620Z,69.45
2018-03-15T10:31:47.613Z,70.69
2018-03-15T10:32:47.606Z,71.17
2018-03-15T10:33:47.604Z,69.93
2018-03-15T10:34:47.657Z,69.54
2018-03-15T10:35:47.589Z,70.02
2018-03-15T10:36:47.645Z,70.21
2018-03-15T10:37:47.572Z,70.50
2018-03-15T10:38:47.565Z,70.78
2018-03-15T10:39:47.626Z,71.36
2018-03-15T10:40:47.551Z,70.21
2018-03-15T10:41:47.544Z,70.12
2018-03-15T10:42:47.585Z,71.98
2018-03-15T10:43:47.530Z,71.83
2018-03-15T10:44:47.525Z,71.89
2018-03-15T10:45:47.534Z,72.31
2018-03-15T10:46:47.509Z,71.98
2018-03-15T10:47:47.501Z,71.22
2018-03-15T10:48:47.492Z,72.08
2018-03-15T10:49:47.488Z,72.31
2018-03-15T10:50:47.530Z,71.80
2018-03-15T10:51:47.470Z,71.32
2018-03-15T10:52:47.463Z,71.51
2018-03-15T10:53:47.528Z,71.70
2018-03-15T10:54:47.446Z,72.08
2018-03-15T10:55:47.438Z,73.22
2018-03-15T10:56:47.474Z,73.03
2018-03-15T10:57:47.421Z,72.17
2018-03-15T10:58:47.413Z,72.12
2018-03-15T10:59:47.427Z,72.41
2018-03-15T11:00:47.395Z,72.12
2018-03-15T11:01:47.388Z,71.73
2018-03-15T11:02:47.382Z,71.73
2018-03-15T11:03:47.375Z,71.17
2018-03-15T11:04:47.385Z,71.36
2018-03-15T11:05:47.355Z,71.64
2018-03-15T11:06:47.348Z,72.21
2018-03-15T11:07:47.394Z,71.93
2018-03-15T11:08:47.328Z,72.31
2018-03-15T11:09:47.320Z,71.89
2018-03-15T11:10:47.312Z,71.80
2018-03-15T11:11:47.303Z,72.27
2018-03-15T11:12:47.336Z,73.03
2018-03-15T11:13:47.388Z,73.26
2018-03-15T11:14:47.280Z,73.65
2018-03-15T11:15:47.271Z,72.69
2018-03-15T11:16:47.311Z,74.12
2018-03-15T11:17:47.250Z,72.50
2018-03-15T11:18:47.246Z,71.93
2018-03-15T11:19:47.439Z,72.12
2018-03-15T11:20:47.224Z,72.41
2018-03-15T11:21:47.216Z,73.26
2018-03-15T11:22:47.215Z,74.21
2018-03-15T11:23:47.281Z,73.65
2018-03-15T11:24:47.189Z,72.78
2018-03-15T11:25:47.179Z,72.50
2018-03-15T11:26:47.172Z,73.03
2018-03-15T11:27:47.161Z,73.03
2018-03-15T11:28:47.152Z,74.27
2018-03-15T11:29:47.142Z,73.61
2018-03-15T11:30:47.135Z,72.46
2018-03-15T11:31:47.249Z,73.80
2018-03-15T11:32:47.119Z,73.03
2018-03-15T11:33:47.107Z,72.46
2018-03-15T11:34:47.136Z,72.46
2018-03-15T11:35:47.089Z,73.41
2018-03-15T11:36:47.077Z,73.99
2018-03-15T11:37:47.120Z,72.46
2018-03-15T11:38:47.058Z,73.03
2018-03-15T11:39:47.053Z,72.46
2018-03-15T11:40:47.039Z,72.75
2018-03-15T11:41:47.029Z,72.65
2018-03-15T11:42:47.022Z,72.75
2018-03-15T11:43:47.038Z,72.62
2018-03-15T11:44:47.002Z,71.67
2018-03-15T11:45:47.239Z,72.81
2018-03-15T11:46:46.982Z,73.76
2018-03-15T11:47:46.970Z,73.51
2018-03-15T11:48:47.044Z,73.85
2018-03-15T11:49:46.950Z,73.80
2018-03-15T11:50:46.941Z,74.18
2018-03-15T11:51:46.970Z,73.03
2018-03-15T11:52:46.923Z,72.27
2018-03-15T11:53:46.910Z,71.67
2018-03-15T11:54:46.906Z,72.42
2018-03-15T11:55:46.893Z,73.19
2018-03-15T11:56:46.885Z,73.10
2018-03-15T11:57:46.873Z,72.81
2018-03-15T11:58:46.859Z,73.57
2018-03-15T11:59:46.849Z,73.00
2018-03-15T12:00:46.838Z,74.14
2018-03-15T12:01:46.840Z,72.90
2018-03-15T12:02:46.894Z,73.28
2018-03-15T12:03:46.808Z,72.81
2018-03-15T12:04:46.797Z,73.00
2018-03-15T12:05:46.827Z,72.71
2018-03-15T12:06:46.777Z,73.00
2018-03-15T12:07:46.865Z,73.85
2018-03-15T12:08:46.771Z,72.81
2018-03-15T12:09:46.745Z,73.00
2018-03-15T12:10:46.741Z,72.90
2018-03-15T12:11:46.727Z,72.81
2018-03-15T12:12:46.716Z,73.76
2018-03-15T12:13:46.703Z,73.28
2018-03-15T12:14:46.693Z,72.62
2018-03-15T12:15:46.682Z,73.38
2018-03-15T12:16:46.920Z,74.52
2018-03-15T12:17:46.660Z,73.76
2018-03-15T12:18:46.650Z,72.14
2018-03-15T12:20:46.631Z,73.57
2018-03-15T12:21:46.618Z,72.90
2018-03-15T12:22:46.619Z,72.05
2018-03-15T12:23:46.598Z,71.67
2018-03-15T12:24:46.587Z,71.95
2018-03-15T12:25:46.578Z,71.19
2018-03-15T12:26:46.567Z,71.67
2018-03-15T12:27:46.556Z,71.86
2018-03-15T12:28:46.544Z,71.95
2018-03-15T12:29:46.534Z,72.42
2018-03-15T12:30:46.523Z,72.81
2018-03-15T12:31:46.512Z,72.33
2018-03-15T12:32:46.502Z,72.81
2018-03-15T12:33:46.695Z,71.76
2018-03-15T12:34:46.479Z,72.33
2018-03-15T12:35:46.468Z,72.90
2018-03-15T12:36:46.512Z,72.33
2018-03-15T12:37:46.446Z,72.33
2018-03-15T12:38:46.435Z,71.95
2018-03-15T12:39:46.439Z,71.76
2018-03-15T12:40:46.417Z,72.81
2018-03-15T12:41:46.404Z,73.00
2018-03-15T12:42:46.391Z,74.24
2018-03-15T12:43:46.381Z,74.33
2018-03-15T12:44:46.369Z,74.14
2018-03-15T12:45:46.375Z,74.24
2018-03-15T12:46:46.348Z,74.04
2018-03-15T12:47:46.432Z,73.57
2018-03-15T12:48:46.324Z,74.24
2018-03-15T12:49:46.317Z,74.24
2018-03-15T12:50:46.507Z,73.95
2018-03-15T12:51:46.293Z,74.04
2018-03-15T12:52:46.281Z,74.62
2018-03-15T12:53:46.333Z,73.85
2018-03-15T12:54:46.263Z,74.24
2018-03-15T12:55:46.253Z,73.95